createdAt,value
2022-10-25T00:01:17.898Z,15.70
2022-10-25T00:03:47.125Z,15.76
2022-10-25T00:06:16.342Z,15.80
2022-10-25T00:08:43.562Z,15.86
2022-10-25T00:11:20.744Z,15.87
2022-10-25T00:13:56.654Z,15.90
2022-10-25T00:16:27.752Z,15.68
2022-10-25T00:18:54.991Z,15.75
2022-10-25T00:21:22.014Z,15.66
2022-10-25T00:23:49.266Z,15.72
2022-10-25T00:26:16.446Z,15.74
2022-10-25T00:28:43.687Z,15.81
2022-10-25T00:31:16.937Z,15.77
2022-10-25T00:33:45.264Z,15.78
2022-10-25T00:36:18.994Z,15.72
2022-10-25T00:38:46.401Z,15.74
2022-10-25T00:41:15.814Z,15.72
2022-10-25T00:43:55.675Z,15.70
2022-10-25T00:46:29.334Z,15.61
2022-10-25T00:49:02.439Z,15.61
2022-10-25T00:51:35.164Z,15.60
2022-10-25T00:54:02.084Z,15.58
2022-10-25T00:56:34.098Z,15.60
2022-10-25T00:59:09.222Z,15.59
2022-10-25T01:01:37.520Z,15.62
2022-10-25T01:04:08.287Z,15.55
2022-10-25T01:06:38.799Z,15.65
2022-10-25T01:09:07.255Z,15.76
2022-10-25T01:11:36.254Z,15.84
2022-10-25T01:14:03.854Z,15.79
2022-10-25T01:16:48.934Z,15.86
2022-10-25T01:19:24.744Z,15.89
2022-10-25T01:21:57.746Z,15.74
2022-10-25T01:25:07.606Z,15.58
2022-10-25T01:28:05.407Z,15.58
2022-10-25T01:31:00.687Z,15.55
2022-10-25T01:33:40.394Z,15.52
2022-10-25T01:38:47.964Z,15.31
2022-10-25T01:41:24.962Z,15.40
2022-10-25T01:43:51.762Z,15.43
2022-10-25T01:46:18.543Z,15.40
2022-10-25T01:48:52.223Z,15.36
2022-10-25T01:51:19.072Z,15.34
2022-10-25T01:53:51.906Z,15.26
2022-10-25T01:56:24.672Z,15.24
2022-10-25T01:59:29.398Z,15.14
2022-10-25T02:01:59.043Z,14.97
2022-10-25T02:04:37.765Z,14.96
2022-10-25T02:07:53.970Z,14.95
2022-10-25T02:10:29.613Z,14.89
2022-10-25T02:13:03.183Z,14.92
2022-10-25T02:15:35.862Z,14.91
2022-10-25T02:18:07.238Z,14.99
2022-10-25T02:20:36.046Z,14.84
2022-10-25T02:23:06.344Z,14.89
2022-10-25T02:25:35.253Z,14.85
2022-10-25T02:28:09.143Z,14.80
2022-10-25T02:30:38.262Z,14.82
2022-10-25T02:33:05.569Z,14.82
2022-10-25T02:35:34.305Z,14.87
2022-10-25T02:38:01.871Z,14.84
2022-10-25T02:40:29.208Z,14.78
2022-10-25T02:42:56.137Z,14.81
2022-10-25T02:45:23.487Z,14.85
2022-10-25T02:47:50.443Z,14.84
2022-10-25T02:50:17.512Z,14.85
2022-10-25T02:52:44.707Z,14.74
2022-10-25T02:55:11.832Z,14.62
2022-10-25T02:57:38.882Z,14.68
2022-10-25T03:00:07.866Z,14.71
2022-10-25T03:02:34.735Z,14.67
2022-10-25T03:05:01.600Z,14.69
2022-10-25T03:07:28.577Z,14.72
2022-10-25T03:09:55.463Z,14.60
2022-10-25T03:12:22.505Z,14.55
2022-10-25T03:14:49.790Z,14.47
2022-10-25T03:17:16.599Z,14.49
2022-10-25T03:19:43.571Z,14.44
2022-10-25T03:22:10.503Z,14.44
2022-10-25T03:24:37.322Z,14.34
2022-10-25T03:27:04.162Z,14.36
2022-10-25T03:29:31.142Z,14.39
2022-10-25T03:31:58.052Z,14.47
2022-10-25T03:34:27.363Z,14.50
2022-10-25T03:36:54.201Z,14.51
2022-10-25T03:39:21.122Z,14.43
2022-10-25T03:41:48.022Z,14.46
2022-10-25T03:44:15.032Z,14.36
2022-10-25T03:46:43.416Z,14.33
2022-10-25T03:49:10.381Z,14.26
2022-10-25T03:51:37.253Z,14.28
2022-10-25T03:54:05.362Z,14.17
2022-10-25T03:56:32.211Z,14.11
2022-10-25T03:58:59.341Z,14.26
2022-10-25T04:01:26.686Z,14.29
2022-10-25T04:03:53.504Z,14.32
2022-10-25T04:06:20.553Z,14.37
2022-10-25T04:08:47.343Z,14.35
2022-10-25T04:11:14.223Z,14.43
2022-10-25T04:13:41.087Z,14.42
2022-10-25T04:16:09.061Z,14.40
2022-10-25T04:18:36.492Z,14.41
2022-10-25T04:21:03.432Z,14.40
2022-10-25T04:23:31.512Z,14.34
2022-10-25T04:25:58.630Z,14.36
2022-10-25T04:28:25.840Z,14.25
2022-10-25T04:30:52.719Z,14.09
2022-10-25T04:33:19.572Z,14.06
2022-10-25T04:35:57.174Z,14.07
2022-10-25T04:38:24.530Z,14.06
2022-10-25T04:40:58.941Z,14.02
2022-10-25T04:43:27.762Z,14.02
2022-10-25T04:45:55.157Z,13.93
2022-10-25T04:48:24.402Z,13.88
2022-10-25T04:50:51.367Z,13.87
2022-10-25T04:53:18.255Z,13.82
2022-10-25T04:55:45.188Z,13.85
2022-10-25T04:58:11.951Z,13.85
2022-10-25T05:00:38.822Z,13.85
2022-10-25T05:03:09.529Z,13.85
2022-10-25T05:05:39.843Z,13.96
2022-10-25T05:08:06.667Z,14.05
2022-10-25T05:10:33.475Z,14.10
2022-10-25T05:13:18.795Z,14.17
2022-10-25T05:15:45.661Z,14.01
2022-10-25T05:18:12.494Z,14.00
2022-10-25T05:20:39.490Z,14.05
2022-10-25T05:23:06.289Z,14.07
2022-10-25T05:25:33.185Z,14.21
2022-10-25T05:28:00.193Z,14.27
2022-10-25T05:30:27.090Z,14.26
2022-10-25T05:32:54.322Z,14.42
2022-10-25T05:35:24.434Z,14.62
2022-10-25T05:37:52.455Z,15.13
2022-10-25T05:40:19.349Z,15.30
2022-10-25T05:42:48.799Z,15.77
2022-10-25T05:45:16.181Z,16.13
2022-10-25T05:47:43.104Z,16.37
2022-10-25T05:50:10.143Z,16.72
2022-10-25T05:52:37.125Z,16.93
2022-10-25T05:55:04.109Z,17.40
2022-10-25T05:57:31.267Z,17.89
2022-10-25T05:59:58.044Z,18.13
2022-10-25T06:02:25.075Z,18.67
2022-10-25T06:05:10.949Z,19.09
2022-10-25T06:07:37.861Z,19.29
2022-10-25T06:10:09.573Z,19.70
2022-10-25T06:12:37.628Z,20.36
2022-10-25T06:15:23.285Z,20.71
2022-10-25T06:17:50.140Z,20.65
2022-10-25T06:20:17.005Z,21.04
2022-10-25T06:22:44.125Z,21.79
2022-10-25T06:25:11.217Z,22.07
2022-10-25T06:27:38.074Z,22.49
2022-10-25T06:30:05.631Z,23.06
2022-10-25T06:32:32.519Z,22.96
2022-10-25T06:34:59.450Z,23.70
2022-10-25T06:37:26.318Z,21.97
2022-10-25T06:39:53.194Z,20.78
2022-10-25T06:42:20.074Z,20.44
2022-10-25T06:44:46.966Z,20.20
2022-10-25T06:47:18.094Z,19.87
2022-10-25T06:49:46.094Z,20.45
2022-10-25T06:52:13.354Z,20.66
2022-10-25T06:54:40.275Z,20.89
2022-10-25T06:57:07.215Z,20.96
2022-10-25T06:59:34.066Z,20.57
2022-10-25T07:02:01.054Z,20.32
2022-10-25T07:04:28.108Z,20.11
2022-10-25T07:06:55.559Z,19.91
2022-10-25T07:09:22.585Z,19.72
2022-10-25T07:11:50.787Z,19.64
2022-10-25T07:14:17.669Z,19.49
2022-10-25T07:16:44.785Z,19.49
2022-10-25T07:19:11.644Z,19.51
2022-10-25T07:21:38.552Z,19.56
2022-10-25T07:24:05.755Z,19.57
2022-10-25T07:26:35.958Z,19.60
2022-10-25T07:29:04.538Z,19.73
2022-10-25T07:31:34.096Z,19.77
2022-10-25T07:34:02.375Z,19.95
2022-10-25T07:36:30.614Z,20.12
2022-10-25T07:38:58.674Z,20.24
2022-10-25T07:41:26.902Z,20.30
2022-10-25T07:43:53.829Z,20.45
2022-10-25T07:46:20.854Z,20.63
2022-10-25T07:48:47.784Z,20.90
2022-10-25T07:51:17.404Z,21.06
2022-10-25T07:54:03.098Z,21.18
2022-10-25T07:56:30.483Z,21.48
2022-10-25T07:58:58.033Z,21.54
2022-10-25T08:01:28.219Z,21.86
2022-10-25T08:03:55.874Z,22.10
2022-10-25T08:06:24.116Z,22.15
2022-10-25T08:08:51.025Z,22.28
2022-10-25T08:11:18.034Z,22.28
2022-10-25T08:13:44.965Z,22.27
2022-10-25T08:16:12.044Z,22.34
2022-10-25T08:18:38.896Z,22.51
2022-10-25T08:21:06.417Z,23.22
2022-10-25T08:23:33.517Z,23.77
2022-10-25T08:26:01.655Z,24.16
2022-10-25T08:28:30.944Z,24.58
2022-10-25T08:30:58.393Z,25.04
2022-10-25T08:33:25.285Z,25.04
2022-10-25T08:35:52.203Z,25.10
2022-10-25T08:38:19.092Z,25.31
2022-10-25T08:41:17.465Z,25.80
2022-10-25T08:43:56.227Z,26.38
2022-10-25T08:46:33.278Z,26.49
2022-10-25T08:49:27.355Z,26.58
2022-10-25T08:51:56.612Z,26.57
2022-10-25T08:54:37.744Z,26.68
2022-10-25T08:57:26.464Z,27.20
2022-10-25T09:00:10.713Z,26.87
2022-10-25T09:02:47.116Z,26.97
2022-10-25T09:05:25.444Z,27.30
2022-10-25T09:08:32.838Z,27.32
2022-10-25T09:11:26.087Z,27.46
2022-10-25T09:14:10.613Z,27.54
2022-10-25T09:16:51.722Z,27.86
2022-10-25T09:19:44.625Z,28.02
2022-10-25T09:22:31.701Z,27.85
2022-10-25T09:25:10.748Z,28.09
2022-10-25T09:27:43.463Z,28.34
2022-10-25T09:30:12.564Z,28.33
2022-10-25T09:33:06.077Z,28.21
2022-10-25T09:35:53.729Z,28.28
2022-10-25T09:38:39.076Z,28.48
2022-10-25T09:41:12.968Z,27.88
2022-10-25T09:43:45.686Z,27.77
2022-10-25T09:46:18.456Z,27.13
2022-10-25T09:48:53.139Z,27.33
2022-10-25T09:51:55.240Z,27.11
2022-10-25T09:54:31.842Z,26.93
2022-10-25T09:56:59.265Z,26.71
2022-10-25T09:59:28.254Z,26.69
2022-10-25T10:01:55.382Z,26.37
2022-10-25T10:04:40.062Z,26.15
2022-10-25T10:07:22.912Z,25.51
2022-10-25T10:09:51.960Z,25.30
2022-10-25T10:12:48.336Z,25.40
2022-10-25T10:15:21.453Z,25.19
2022-10-25T10:18:01.042Z,24.93
2022-10-25T10:20:27.986Z,24.81
2022-10-25T10:22:55.010Z,24.60
2022-10-25T10:25:26.395Z,24.54
2022-10-25T10:27:56.755Z,24.61
2022-10-25T10:30:29.766Z,24.51
2022-10-25T10:33:01.817Z,24.24
2022-10-25T10:35:36.988Z,24.05
2022-10-25T10:38:30.078Z,24.05
2022-10-25T10:41:26.936Z,24.02
2022-10-25T10:44:14.167Z,24.20
2022-10-25T10:46:46.599Z,24.42
2022-10-25T10:49:15.212Z,24.81
2022-10-25T10:51:45.429Z,25.05
2022-10-25T10:54:26.571Z,25.10
2022-10-25T10:57:01.920Z,25.40
2022-10-25T10:59:31.629Z,25.60
2022-10-25T11:02:17.839Z,25.82
2022-10-25T11:04:53.574Z,25.84
2022-10-25T11:07:42.448Z,25.88
2022-10-25T11:10:15.368Z,25.76
2022-10-25T11:12:43.396Z,25.76
2022-10-25T11:15:14.006Z,25.78
2022-10-25T11:17:54.083Z,25.90
2022-10-25T11:20:48.982Z,25.66
2022-10-25T11:23:39.587Z,25.03
2022-10-25T11:26:35.806Z,24.92
2022-10-25T11:29:23.366Z,25.14
2022-10-25T11:32:01.491Z,25.49
2022-10-25T11:34:43.427Z,25.40
2022-10-25T11:37:15.858Z,25.64
2022-10-25T11:40:01.952Z,25.53
2022-10-25T11:42:50.705Z,25.18
2022-10-25T11:45:32.530Z,24.97
2022-10-25T11:48:19.807Z,25.16
2022-10-25T11:51:43.877Z,25.39
2022-10-25T11:54:34.496Z,24.89
2022-10-25T11:57:32.565Z,25.03
2022-10-25T12:00:07.259Z,24.92
2022-10-25T12:02:43.786Z,25.00
2022-10-25T12:05:25.973Z,25.00
2022-10-25T12:08:37.396Z,25.08
2022-10-25T12:11:09.003Z,25.26
2022-10-25T12:13:42.716Z,25.28
2022-10-25T12:16:17.023Z,25.35
2022-10-25T12:19:06.646Z,25.13
2022-10-25T12:21:43.630Z,25.12
2022-10-25T12:24:23.677Z,25.11
2022-10-25T12:26:54.003Z,25.31
2022-10-25T12:29:26.628Z,25.05
2022-10-25T12:31:58.054Z,25.22
2022-10-25T12:34:43.366Z,25.10
2022-10-25T12:37:39.188Z,24.96
2022-10-25T12:40:14.949Z,24.85
2022-10-25T12:42:49.890Z,24.94
2022-10-25T12:45:48.806Z,25.08
2022-10-25T12:48:46.276Z,25.03
2022-10-25T12:51:33.104Z,25.00
2022-10-25T12:54:14.668Z,24.97
2022-10-25T12:57:02.580Z,24.68
2022-10-25T12:59:54.278Z,24.45
2022-10-25T13:02:58.251Z,24.49
2022-10-25T13:06:02.047Z,24.52
2022-10-25T13:08:29.835Z,24.51
2022-10-25T13:11:00.215Z,24.45
2022-10-25T13:13:31.142Z,24.27
2022-10-25T13:16:01.263Z,23.97
2022-10-25T13:18:40.328Z,23.83
2022-10-25T13:21:10.333Z,23.71
2022-10-25T13:23:43.232Z,23.81
2022-10-25T13:26:32.171Z,23.69
2022-10-25T13:29:23.243Z,23.62
2022-10-25T13:31:58.902Z,23.39
2022-10-25T13:34:34.569Z,23.41
2022-10-25T13:37:03.990Z,23.24
2022-10-25T13:39:43.398Z,23.17
2022-10-25T13:42:16.267Z,23.03
2022-10-25T13:44:59.727Z,22.88
2022-10-25T13:47:47.205Z,22.93
2022-10-25T13:50:31.024Z,22.80
2022-10-25T13:53:14.805Z,22.82
2022-10-25T13:55:48.079Z,22.73
2022-10-25T13:58:32.109Z,22.64
2022-10-25T14:01:17.714Z,22.51
2022-10-25T14:04:02.809Z,22.35
2022-10-25T14:06:52.264Z,22.21
2022-10-25T14:09:52.204Z,22.18
2022-10-25T14:12:21.668Z,22.09
2022-10-25T14:14:48.366Z,22.04
2022-10-25T14:17:31.595Z,21.91
2022-10-25T14:20:02.997Z,21.73
2022-10-25T14:22:38.486Z,21.76
2022-10-25T14:25:15.133Z,21.73
2022-10-25T14:27:42.007Z,21.80
2022-10-25T14:30:27.490Z,21.69
2022-10-25T14:33:03.953Z,21.73
2022-10-25T14:35:34.893Z,21.60
2022-10-25T14:38:16.345Z,21.58
2022-10-25T14:40:51.554Z,21.55
2022-10-25T14:43:38.334Z,21.51
2022-10-25T14:46:14.300Z,21.45
2022-10-25T14:48:45.422Z,21.32
2022-10-25T14:51:21.734Z,21.26
2022-10-25T14:53:56.000Z,21.13
2022-10-25T14:56:30.568Z,21.10
2022-10-25T14:58:57.957Z,21.08
2022-10-25T15:01:25.397Z,20.90
2022-10-25T15:03:54.857Z,20.84
2022-10-25T15:06:25.287Z,20.76
2022-10-25T15:09:16.142Z,20.77
2022-10-25T15:12:04.387Z,20.68
2022-10-25T15:14:31.651Z,20.66
2022-10-25T15:17:03.071Z,20.55
2022-10-25T15:19:29.923Z,20.47
2022-10-25T15:22:07.743Z,20.42
2022-10-25T15:24:44.819Z,20.34
2022-10-25T15:27:35.464Z,20.20
2022-10-25T15:30:05.000Z,20.15
2022-10-25T15:32:33.576Z,20.11
2022-10-25T15:35:01.953Z,20.06
2022-10-25T15:37:30.134Z,20.02
2022-10-25T15:39:57.647Z,19.90
2022-10-25T15:42:26.181Z,19.81
2022-10-25T15:44:53.066Z,19.79
2022-10-25T15:47:34.893Z,19.71
2022-10-25T15:50:03.880Z,19.65
2022-10-25T15:52:30.857Z,19.60
2022-10-25T15:54:57.665Z,19.51
2022-10-25T15:57:27.496Z,19.39
2022-10-25T15:59:54.331Z,19.41
2022-10-25T16:02:27.210Z,19.33
2022-10-25T16:04:54.248Z,19.30
2022-10-25T16:07:21.046Z,19.23
2022-10-25T16:09:47.926Z,19.11
2022-10-25T16:12:21.694Z,19.09
2022-10-25T16:14:50.674Z,19.06
2022-10-25T16:17:17.521Z,18.97
2022-10-25T16:19:44.371Z,18.93
2022-10-25T16:22:11.144Z,18.86
2022-10-25T16:24:38.282Z,18.81
2022-10-25T16:27:05.178Z,18.71
2022-10-25T16:29:32.104Z,18.78
2022-10-25T16:31:59.101Z,18.73
2022-10-25T16:34:25.967Z,18.63
2022-10-25T16:36:52.954Z,18.60
2022-10-25T16:39:19.912Z,18.60
2022-10-25T16:41:47.841Z,18.53
2022-10-25T16:44:19.453Z,18.58
2022-10-25T16:46:46.752Z,18.56
2022-10-25T16:49:13.815Z,18.46
2022-10-25T16:51:41.072Z,18.52
2022-10-25T16:54:08.226Z,18.38
2022-10-25T16:56:35.891Z,18.37
2022-10-25T16:59:03.393Z,18.27
2022-10-25T17:01:40.019Z,18.25
2022-10-25T17:04:10.794Z,18.17
2022-10-25T17:06:42.008Z,18.11
2022-10-25T17:09:09.614Z,18.05
2022-10-25T17:11:37.686Z,17.94
2022-10-25T17:14:04.722Z,17.90
2022-10-25T17:16:31.776Z,17.87
2022-10-25T17:18:58.739Z,17.86
2022-10-25T17:21:25.582Z,17.73
2022-10-25T17:23:52.355Z,17.70
2022-10-25T17:26:19.239Z,17.70
2022-10-25T17:28:46.076Z,17.53
2022-10-25T17:31:14.663Z,17.57
2022-10-25T17:33:42.694Z,17.50
2022-10-25T17:36:12.189Z,17.43
2022-10-25T17:38:39.052Z,17.37
2022-10-25T17:41:06.431Z,17.32
2022-10-25T17:43:35.963Z,17.27
2022-10-25T17:46:08.274Z,17.25
2022-10-25T17:48:35.750Z,17.28
2022-10-25T17:51:04.653Z,17.30
2022-10-25T17:53:31.632Z,17.33
2022-10-25T17:55:58.515Z,17.22
2022-10-25T17:58:26.061Z,17.15
2022-10-25T18:00:54.607Z,17.12
2022-10-25T18:03:21.614Z,16.96
2022-10-25T18:05:48.624Z,16.89
2022-10-25T18:08:15.921Z,16.80
2022-10-25T18:10:42.942Z,16.82
2022-10-25T18:13:09.714Z,16.80
2022-10-25T18:15:38.393Z,16.80
2022-10-25T18:18:05.383Z,16.71
2022-10-25T18:20:32.448Z,16.74
2022-10-25T18:22:59.231Z,16.72
2022-10-25T18:25:26.073Z,16.81
2022-10-25T18:27:52.831Z,16.72
2022-10-25T18:30:19.635Z,16.66
2022-10-25T18:32:46.518Z,16.58
2022-10-25T18:35:13.343Z,16.54
2022-10-25T18:37:40.322Z,16.42
2022-10-25T18:40:08.583Z,16.37
2022-10-25T18:42:36.090Z,16.37
2022-10-25T18:45:04.252Z,16.26
2022-10-25T18:47:31.165Z,16.27
2022-10-25T18:49:58.015Z,16.15
2022-10-25T18:52:24.910Z,16.15
2022-10-25T18:54:55.284Z,16.12
2022-10-25T18:57:22.148Z,16.16
2022-10-25T18:59:48.987Z,16.11
2022-10-25T19:02:16.053Z,16.02
2022-10-25T19:04:42.998Z,15.73
2022-10-25T19:07:09.761Z,15.80
2022-10-25T19:09:36.548Z,15.83
2022-10-25T19:12:03.392Z,15.74
2022-10-25T19:14:30.156Z,15.74
2022-10-25T19:16:57.004Z,15.76
2022-10-25T19:19:23.755Z,15.83
2022-10-25T19:21:50.647Z,15.84
2022-10-25T19:24:17.691Z,15.86
2022-10-25T19:26:45.077Z,15.86
2022-10-25T19:29:11.937Z,15.71
2022-10-25T19:31:38.820Z,15.87
2022-10-25T19:34:05.662Z,15.52
2022-10-25T19:36:32.562Z,15.41
2022-10-25T19:39:00.001Z,15.61
2022-10-25T19:41:26.848Z,15.60
2022-10-25T19:43:53.875Z,15.60
2022-10-25T19:46:21.654Z,15.54
2022-10-25T19:48:48.678Z,15.36
2022-10-25T19:51:18.711Z,15.41
2022-10-25T19:53:46.065Z,15.54
2022-10-25T19:56:18.333Z,15.46
2022-10-25T19:58:45.610Z,15.36
2022-10-25T20:01:16.045Z,15.28
2022-10-25T20:03:44.573Z,15.31
2022-10-25T20:06:18.869Z,15.18
2022-10-25T20:08:48.715Z,15.18
2022-10-25T20:11:17.127Z,15.18
2022-10-25T20:13:44.376Z,15.06
2022-10-25T20:16:13.950Z,15.03
2022-10-25T20:18:42.158Z,14.97
2022-10-25T20:21:17.916Z,14.94
2022-10-25T20:23:49.901Z,14.85
2022-10-25T20:26:22.734Z,14.99
2022-10-25T20:31:26.319Z,14.90
2022-10-25T20:33:54.445Z,14.98
2022-10-25T20:36:21.464Z,14.96
2022-10-25T20:38:48.479Z,14.94
2022-10-25T20:41:18.543Z,15.03
2022-10-25T20:43:48.097Z,14.75
2022-10-25T20:46:15.997Z,14.85
2022-10-25T20:48:43.154Z,14.90
2022-10-25T20:51:11.537Z,15.00
2022-10-25T20:53:42.991Z,15.03
2022-10-25T20:56:10.153Z,15.01
2022-10-25T20:58:36.973Z,14.99
2022-10-25T21:01:04.299Z,14.84
2022-10-25T21:03:32.038Z,14.64
2022-10-25T21:06:00.952Z,14.61
2022-10-25T21:08:27.954Z,14.67
2022-10-25T21:10:56.432Z,14.77
2022-10-25T21:13:24.531Z,14.65
2022-10-25T21:15:52.950Z,14.63
2022-10-25T21:18:20.284Z,14.69
2022-10-25T21:20:48.865Z,14.65
2022-10-25T21:23:15.696Z,14.75
2022-10-25T21:25:42.516Z,14.81
2022-10-25T21:28:09.342Z,14.74
2022-10-25T21:30:36.290Z,14.68
2022-10-25T21:33:04.462Z,14.61
2022-10-25T21:35:32.735Z,14.73
2022-10-25T21:37:59.683Z,14.77
2022-10-25T21:40:27.462Z,14.66
2022-10-25T21:42:57.852Z,14.44
2022-10-25T21:45:24.763Z,14.47
2022-10-25T21:47:51.817Z,14.41
2022-10-25T21:50:18.778Z,14.40
2022-10-25T21:52:45.712Z,14.46
2022-10-25T21:55:12.513Z,14.50
2022-10-25T21:57:39.343Z,14.46
2022-10-25T22:00:06.770Z,14.30
2022-10-25T22:02:33.815Z,14.23
2022-10-25T22:05:00.910Z,14.24
2022-10-25T22:07:27.764Z,14.27
2022-10-25T22:09:54.572Z,14.28
2022-10-25T22:12:21.337Z,14.17
2022-10-25T22:14:48.854Z,14.18
2022-10-25T22:17:15.691Z,14.13
2022-10-25T22:19:42.484Z,14.18
2022-10-25T22:22:09.356Z,14.07
2022-10-25T22:24:36.204Z,14.11
2022-10-25T22:27:03.043Z,14.02
2022-10-25T22:29:29.942Z,14.03
2022-10-25T22:33:35.606Z,14.02
2022-10-25T22:36:10.077Z,13.64
2022-10-25T22:38:37.646Z,13.46
2022-10-25T22:41:07.252Z,13.38
2022-10-25T22:43:36.156Z,13.26
2022-10-25T22:46:05.230Z,13.32
2022-10-25T22:48:33.749Z,13.46
2022-10-25T22:51:01.409Z,13.58
2022-10-25T22:53:29.054Z,13.57
2022-10-25T22:56:03.807Z,13.55
2022-10-25T22:58:34.842Z,13.63
2022-10-25T23:03:41.821Z,13.53
2022-10-25T23:06:14.909Z,13.53
2022-10-25T23:08:43.064Z,13.55
2022-10-25T23:11:19.117Z,13.61
2022-10-25T23:13:46.576Z,13.61
2022-10-25T23:16:15.355Z,13.62
2022-10-25T23:18:42.917Z,13.63
2022-10-25T23:21:22.044Z,13.57
2022-10-25T23:23:49.773Z,13.62
2022-10-25T23:26:20.287Z,13.54
2022-10-25T23:28:47.420Z,13.46
2022-10-25T23:31:14.905Z,13.51
2022-10-25T23:33:42.657Z,13.53
2022-10-25T23:36:15.719Z,13.52
2022-10-25T23:38:46.588Z,13.48
2022-10-25T23:41:13.826Z,13.40
2022-10-25T23:43:40.682Z,13.30
2022-10-25T23:46:08.653Z,13.33
2022-10-25T23:48:36.159Z,13.22
2022-10-25T23:51:06.312Z,13.23
2022-10-25T23:53:33.851Z,13.18
2022-10-25T23:56:01.232Z,13.06
2022-10-25T23:58:28.204Z,13.04
